Tiempo atmosférico en la estación meteorológica de Moguer, El Arenosillo, Huelva (41 m.)



Fecha
DESCASC
Temp. máxima en grados centígrados (hora)
DESCASC
Temp. mínima en grados centígrados (hora)
DESCASC
Temp. media en grados centígrados
DESCASC
Racha de viento máxima en m/sg (hora)
DESCASC
Velocidad máxima media en intervalos de 10 minutos(hora)
DESCASC
Precipitaciones diarias en mm
DESCASC
Precipitaciones de 00:00 a 06:00 en mm
DESCASC
Precipitaciones de 06:00 a 12:00 en mm
DESCASC
Precipitaciones de 12:00 a 18:00 en mm
DESCASC
Precipitaciones de 18:00 a 24:00 en mm
DESCASC
16-04-2019 19.8 (15:10) 6.1 (07:50) 12.9 4.72 (17:20) 2.78 (15:30) 0 0 0 0 0
15-04-2019 -- (--) -- (--) -- -- (--) -- (--) -- 0 -- 0 0
14-04-2019 21.4 (18:20) 11.5 (00:00) 16.4 6.39 (03:40) 3.89 (03:40) 0 0 0 0 0
13-04-2019 20.2 (16:50) 11 (00:00) 15.6 6.67 (06:00) 3.89 (07:50) 0 0 0 0 0
12-04-2019 19.4 (15:40) 8.3 (00:00) 13.8 7.78 (00:20) 4.17 (17:30) 0 0 0 0 0
11-04-2019 19.2 (16:30) 8.7 (00:00) 14 8.61 (18:50) 5 (17:00) 0 0 0 0 0
10-04-2019 20.7 (19:20) 8.1 (00:00) 14.4 10.28 (13:20) 5.28 (14:20) 0 0 0 0 0
09-04-2019 17.8 (15:20) 10.8 (00:00) 14.3 10 (18:10) 6.39 (17:20) 0 0 0 0 0
08-04-2019 17.3 (16:10) 13.4 (00:00) 15.3 11.67 (19:50) 7.78 (19:50) 2.2 0 2.1 0.1 0
07-04-2019 16.2 (12:10) 12.4 (00:00) 14.3 12.78 (16:50) 8.89 (16:50) 4.3 0 0 4.2 0.1
06-04-2019 16.4 (17:20) 10.8 (00:00) 13.6 14.72 (17:40) 7.78 (17:50) 0 0 0 0 0
05-04-2019 15.6 (14:30) 10.9 (00:00) 13.3 16.39 (04:30) 10.83 (04:30) 10.9 6.2 4.2 0 0.5
04-04-2019 18.3 (16:10) 6.2 (00:00) 12.2 11.94 (19:30) 7.22 (19:30) 0 0 0 0 0
03-04-2019 21.8 (14:20) 11.1 (00:00) 16.4 8.89 (17:50) 5 (17:50) 0 0 0 0 0
02-04-2019 19.6 (13:10) 10.7 (00:00) 15.2 5.83 (21:50) 3.61 (18:10) 0 0 0 0 0
01-04-2019 19.2 (15:50) 11.8 (00:00) 15.5 7.5 (18:50) 5 (19:00) 7 6.6 0 0.4 0
31-03-2019 19.7 (11:50) 13.4 (00:00) 16.6 6.11 (14:40) 4.72 (14:40) 0.3 0 0 0.2 0.1
30-03-2019 21.1 (15:50) 10 (00:00) 15.6 8.61 (17:20) 4.72 (18:30) 0 0 0 0 0
29-03-2019 21 (12:30) 8 (00:00) 14.5 8.33 (16:50) 4.17 (16:40) 0 0 0 0 0
28-03-2019 22.9 (15:10) 8.1 (00:00) 15.5 8.33 (09:20) 5 (16:00) 0 0 0 0 0
27-03-2019 22.1 (13:30) 9.8 (00:00) 16 12.22 (17:50) 5.28 (21:00) 0 0 0 0 0
26-03-2019 25.5 (13:20) 13 (00:00) 19.3 8.89 (09:40) 5 (16:30) 0 0 0 0 0
25-03-2019 26 (15:50) 11.1 (00:00) 18.6 10.56 (14:00) 4.44 (14:10) 0 0 0 0 0
24-03-2019 23.2 (13:50) 10.3 (00:00) 16.8 8.89 (11:00) 4.44 (09:10) 0 0 0 0 0
23-03-2019 23 (13:40) 9.7 (00:00) 16.3 11.39 (13:00) 5.28 (10:30) 0 0 0 0 0
22-03-2019 22.2 (16:10) 7.7 (00:00) 15 9.44 (12:10) 4.72 (12:10) 0 0 0 0 0
21-03-2019 20.8 (15:00) 7.9 (00:00) 14.3 10.83 (10:50) 5.28 (17:20) 0 0 0 0 0
20-03-2019 20.2 (13:20) 8.1 (00:00) 14.2 7.78 (13:30) 4.72 (13:40) 0 0 0 0 0
19-03-2019 22.2 (13:50) 7.3 (00:00) 14.8 7.22 (13:20) 3.89 (14:10) 0 0 0 0 0

Gráficas

Temp. máximas Temp. mínimas Temp. medias Precipitaciones Rachas de viento máximas Velocidades máximas media en intervalos de 10 minutos

Datos horarios

Fecha y hora oficial Temperatura (ºC) Velocidad del viento (km/h) Dirección del viento Racha (km/h) Dirección de racha Precipitación (mm) Presión (hPa) Tendencia (hPa) Humedad (%)
2019-04-17 23:00:00 15.5 12 Sudoeste 20 Sudoeste 0 -- -- 74
2019-04-17 22:00:00 15.8 12 Sudoeste 27 Sudoeste 0 -- -- 70
2019-04-17 21:00:00 15.7 14 Sur 23 Sudoeste 0 -- -- 67
2019-04-17 20:00:00 16 8 Sudeste 18 Sudeste 0 -- -- 63
2019-04-17 19:00:00 16 8 Sur 20 Sudoeste 0 -- -- 67
2019-04-17 18:00:00 15.7 10 Sudoeste 19 Sudoeste 0 -- -- 76
2019-04-17 17:00:00 15.1 6 Oeste 23 Oeste 0.2 -- -- 81
2019-04-17 16:00:00 14.7 12 Oeste 36 Sur 0 -- -- 85
2019-04-17 15:00:00 17.6 20 Sur 33 Sudoeste 0 -- -- 76
2019-04-17 14:00:00 17.3 22 Sur 32 Sur 0 -- -- 78
2019-04-17 13:00:00 18.7 16 Sur 30 Sur 0 -- -- 71
2019-04-17 12:00:00 18.7 13 Sur 31 Sur 0 -- -- 71
2019-04-17 11:00:00 17.5 15 Sur 28 Sur 0 -- -- 74
2019-04-17 10:00:00 17 8 Sur 18 Sur 0 -- -- 73
2019-04-17 09:00:00 15.2 6 Sudeste 17 Sudeste 0 -- -- 73
2019-04-17 08:00:00 14.6 8 Sudeste 18 Sur 0 -- -- 73
2019-04-17 07:00:00 14.1 6 Sudeste 21 Sur 0 -- -- 86
2019-04-17 06:00:00 10.8 2 Nordeste 6 Nordeste 0 -- -- 94
2019-04-17 05:00:00 10.9 4 Nordeste 9 Nordeste 0 -- -- 94
2019-04-17 04:00:00 11.3 5 Nordeste 8 Nordeste 0 -- -- 94
2019-04-17 03:00:00 11.3 3 Nordeste 7 Este 0 -- -- 92
2019-04-17 02:00:00 12.7 0 Calma 9 Noroeste 0 -- -- 90
2019-04-17 01:00:00 15.1 5 Oeste 17 Oeste 0 -- -- 86
2019-04-17 00:00:00 15.4 8 Oeste 17 Oeste 0 -- -- 86
2019-04-16 23:00:00 15.4 6 Oeste 13 Noroeste 0 -- -- 85
2019-04-16 22:00:00 15 4 Oeste 7 Oeste 0 -- -- 82
2019-04-16 21:00:00 16 3 Oeste 8 Oeste 0 -- -- 74
2019-04-16 20:00:00 17.6 5 Oeste 13 Oeste 0 -- -- 67
2019-04-16 19:00:00 18.6 6 Sudoeste 17 Oeste 0 -- -- 63
2019-04-16 18:00:00 18.8 8 Sudoeste 17 Oeste 0 -- -- 60
2019-04-16 17:00:00 19.4 8 Sudoeste 15 Sudoeste 0 -- -- 60
2019-04-16 16:00:00 19.3 8 Sudoeste 15 Sudoeste 0 -- -- 60
2019-04-16 15:00:00 19 7 Sudoeste 14 Oeste 0 -- -- 61
2019-04-16 14:00:00 17.7 8 Sudoeste 13 Sudoeste 0 -- -- 66
2019-04-16 13:00:00 16.5 9 Sudoeste 12 Sudoeste 0 -- -- 71
2019-04-16 12:00:00 16.9 7 Sudoeste 11 Sudoeste 0 -- -- 68
2019-04-16 11:00:00 15.9 6 Sur 12 Sudeste 0 -- -- 67
2019-04-16 10:00:00 14.6 5 Este 13 Este 0 -- -- 73
2019-04-16 09:00:00 10.7 5 Este 10 Este 0 -- -- 94
2019-04-16 08:00:00 6.6 3 Nordeste 5 Nordeste 0 -- -- 94
2019-04-16 07:00:00 7.1 0 Calma 4 Noroeste 0 -- -- 93
2019-04-16 06:00:00 8.6 0 Calma 6 Norte 0 -- -- 91
2019-04-16 05:00:00 10.5 5 Norte 10 Norte 0 -- -- 91
2019-04-16 04:00:00 10.4 3 Norte 10 Noroeste 0 -- -- 89
2019-04-16 03:00:00 11.8 5 Norte 11 Norte 0 -- -- 87
2019-04-16 02:00:00 12.1 5 Noroeste 10 Norte 0 -- -- 82
2019-04-16 01:00:00 13.2 5 Norte 15 Noroeste 0 -- -- 75
2019-04-16 00:00:00 14.2 3 Noroeste 13 Norte 0 -- -- 68
2019-04-15 23:00:00 15 7 Norte 14 Norte 0 -- -- 71
2019-04-15 22:00:00 15.9 6 Noroeste 22 Noroeste 0 -- -- 84
2019-04-15 21:00:00 16.3 11 Oeste 31 Oeste 0 -- -- 79
2019-04-15 20:00:00 17.1 8 Sudoeste 33 Oeste 0 -- -- 75
2019-04-15 19:00:00 18.2 8 Oeste 28 Sudoeste 0 -- -- 74
2019-04-15 18:00:00 17.8 16 Sudoeste 31 Sudoeste 0 -- -- 73
2019-04-15 17:00:00 18 19 Sudoeste 31 Sudoeste 0 -- -- 75
2019-04-15 16:00:00 18.3 19 Sudoeste 32 Sudoeste 0 -- -- 75
2019-04-15 15:00:00 18.6 18 Sudoeste 26 Sudoeste 0 -- -- 72
2019-04-15 14:00:00 18.9 10 Sudoeste 21 Sudoeste 0 -- -- 71
2019-04-15 13:00:00 17.7 13 Sudoeste 20 Sudoeste 0 -- -- 73
2019-04-15 12:00:00 17.9 7 Sudoeste 13 Sudoeste 0 -- -- 72
2019-04-15 11:00:00 17.4 5 Sudoeste -- -- -- -- -- 73
2019-04-15 10:00:00 -- -- -- -- -- -- -- -- --
2019-04-15 09:00:00 13.4 4 Noroeste 9 Noroeste 0 -- -- 92
2019-04-15 08:00:00 12.1 3 Noroeste 10 Oeste 0 -- -- 93
2019-04-15 07:00:00 10.2 3 Oeste 6 Oeste 0 -- -- 91
2019-04-15 06:00:00 10.3 5 Este 8 Este 0 -- -- 90
2019-04-15 05:00:00 11.8 2 Este 9 Nordeste 0 -- -- 84
2019-04-15 04:00:00 12.8 5 Nordeste 8 Nordeste 0 -- -- 84
2019-04-15 03:00:00 12.7 3 Nordeste 7 Este 0 -- -- 82
2019-04-15 02:00:00 13.6 3 Nordeste 8 Nordeste 0 -- -- 76
2019-04-15 01:00:00 15.7 5 Nordeste 9 Nordeste 0 -- -- 67
2019-04-15 00:00:00 16.1 2 Norte 6 Norte 0 -- -- 66
2019-04-14 23:00:00 17.5 4 Norte 7 Noroeste 0 -- -- 61
2019-04-14 22:00:00 18.3 4 Norte 9 Oeste 0 -- -- 57
2019-04-14 21:00:00 18.8 4 Noroeste 9 Oeste 0 -- -- 55
2019-04-14 20:00:00 19.9 4 Oeste 10 Oeste 0 -- -- 51
2019-04-14 19:00:00 20.3 5 Oeste 13 Noroeste 0 -- -- 52
2019-04-14 18:00:00 20 8 Oeste 15 Oeste 0 -- -- 60
2019-04-14 17:00:00 19.8 9 Oeste 15 Oeste 0 -- -- 63
2019-04-14 16:00:00 19.9 7 Oeste 14 Oeste 0 -- -- 63
2019-04-14 15:00:00 20.8 6 Sudoeste 13 Oeste 0 -- -- 62
2019-04-14 14:00:00 18.4 9 Sudoeste 13 Sudoeste 0 -- -- 62
2019-04-14 13:00:00 -- -- -- -- -- -- -- -- --
2019-04-14 12:00:00 -- -- -- -- -- -- -- -- --
2019-04-14 11:00:00 -- -- -- -- -- -- -- -- --
2019-04-14 10:00:00 -- -- -- -- -- -- -- -- --
2019-04-14 09:00:00 -- -- -- -- -- -- -- -- --
2019-04-14 08:00:00 -- -- -- -- -- -- -- -- --
2019-04-14 07:00:00 -- -- -- -- -- -- -- -- --
2019-04-14 06:00:00 -- -- -- -- -- -- -- -- --
2019-04-14 05:00:00 -- -- -- -- -- -- -- -- --
2019-04-14 04:00:00 -- -- -- -- -- -- -- -- --
2019-04-14 03:00:00 -- -- -- -- -- -- -- -- --
2019-04-14 02:00:00 -- -- -- -- -- -- -- -- --
2019-04-14 01:00:00 -- -- -- -- -- -- -- -- --
2019-04-14 00:00:00 -- -- -- -- -- -- -- -- --
2019-04-13 23:00:00 -- -- -- -- -- -- -- -- --
2019-04-13 22:00:00 -- -- -- -- -- -- -- -- --
2019-04-13 21:00:00 -- -- -- -- -- -- -- -- --
2019-04-13 20:00:00 -- -- -- -- -- -- -- -- --
2019-04-13 19:00:00 -- -- -- -- -- -- -- -- --
2019-04-13 18:00:00 -- -- -- -- -- -- -- -- --
2019-04-13 17:00:00 -- -- -- -- -- -- -- -- --
2019-04-13 16:00:00 -- -- -- -- -- -- -- -- --
2019-04-13 15:00:00 -- -- -- -- -- -- -- -- --
2019-04-13 14:00:00 -- -- -- -- -- -- -- -- --
2019-04-13 13:00:00 -- -- -- -- -- -- -- -- --
2019-04-13 12:00:00 -- -- -- -- -- -- -- -- --
2019-04-13 11:00:00 -- -- -- -- -- -- -- -- --
2019-04-13 10:00:00 -- -- -- -- -- -- -- -- --
2019-04-13 09:00:00 -- -- -- -- -- -- -- -- --
2019-04-13 08:00:00 -- -- -- -- -- -- -- -- --
2019-04-13 07:00:00 -- -- -- -- -- -- -- -- --
2019-04-13 06:00:00 -- -- -- -- -- -- -- -- --
2019-04-13 05:00:00 -- -- -- -- -- -- -- -- --
2019-04-13 04:00:00 -- -- -- -- -- -- -- -- --
2019-04-13 03:00:00 -- -- -- -- -- -- -- -- --
2019-04-13 02:00:00 -- -- -- -- -- -- -- -- --
2019-04-13 01:00:00 -- -- -- -- -- -- -- -- --
2019-04-13 00:00:00 -- -- -- -- -- -- -- -- --
2019-04-12 23:00:00 -- -- -- -- -- -- -- -- --
2019-04-12 22:00:00 -- -- -- -- -- -- -- -- --
2019-04-12 21:00:00 -- -- -- -- -- -- -- -- --
2019-04-12 20:00:00 -- -- -- -- -- -- -- -- --
2019-04-12 19:00:00 -- -- -- -- -- -- -- -- --
2019-04-12 18:00:00 -- -- -- -- -- -- -- -- --
2019-04-12 17:00:00 -- -- -- -- -- -- -- -- --
2019-04-12 16:00:00 -- -- -- -- -- -- -- -- --
2019-04-12 15:00:00 -- -- -- -- -- -- -- -- --
2019-04-12 14:00:00 -- -- -- -- -- -- -- -- --
2019-04-12 13:00:00 -- -- -- -- -- -- -- -- --
2019-04-12 12:00:00 -- -- -- -- -- -- -- -- --
2019-04-12 11:00:00 -- -- -- -- -- -- -- -- --
2019-04-12 10:00:00 -- -- -- -- -- -- -- -- --
2019-04-12 09:00:00 -- -- -- -- -- -- -- -- --
2019-04-12 08:00:00 9 6 Norte 12 Norte 0 -- -- 89
2019-04-12 07:00:00 9.2 3 Este 12 Norte 0 -- -- 85
2019-04-12 06:00:00 11.1 9 Norte 21 Norte 0 -- -- 77
2019-04-12 05:00:00 12.1 11 Norte 22 Nordeste 0 -- -- 72
2019-04-12 04:00:00 12.5 12 Norte 23 Norte 0 -- -- 70
2019-04-12 03:00:00 12.8 10 Norte 20 Norte 0 -- -- 68
2019-04-12 02:00:00 13.4 9 Norte 25 Norte 0 -- -- 69
2019-04-12 01:00:00 14.1 11 Norte 28 Noroeste 0 -- -- 65
2019-04-12 00:00:00 14.8 10 Norte 19 Norte 0 -- -- 60
2019-04-11 23:00:00 14.4 4 Norte 16 Oeste 0 -- -- 81
2019-04-11 22:00:00 15.9 8 Noroeste 23 Noroeste 0 -- -- 77
2019-04-11 21:00:00 15.7 10 Noroeste 21 Oeste 0 -- -- 79
2019-04-11 20:00:00 16.3 10 Oeste 30 Oeste 0 -- -- 76
2019-04-11 19:00:00 16.8 17 Oeste 31 Oeste 0 -- -- 73
2019-04-11 18:00:00 17.5 10 Sudoeste 27 Sudoeste 0 -- -- 67
2019-04-11 17:00:00 17.7 18 Sudoeste 28 Sur 0 -- -- 62
2019-04-11 16:00:00 18.8 9 Sudoeste 21 Oeste 0 -- -- 57
2019-04-11 15:00:00 18 9 Sudoeste 22 Oeste 0 -- -- 56
2019-04-11 14:00:00 17.3 9 Oeste 20 Sudoeste 0 -- -- 61
2019-04-11 13:00:00 17.2 8 Sudoeste 19 Sudoeste 0 -- -- 57
2019-04-11 12:00:00 15.1 10 Oeste 15 Oeste 0 -- -- 61
2019-04-11 11:00:00 15 3 Norte 23 Sudoeste 0 -- -- 58
2019-04-11 10:00:00 12.1 12 Norte 20 Norte 0 -- -- 73
2019-04-11 09:00:00 9.6 9 Norte 17 Norte 0 -- -- 86
2019-04-11 08:00:00 8.7 8 Norte 18 Norte 0 -- -- 89
2019-04-11 07:00:00 9.1 10 Norte 18 Norte 0 -- -- 86
2019-04-11 06:00:00 9.9 8 Norte 22 Noroeste 0 -- -- 81
2019-04-11 05:00:00 10.4 11 Norte 21 Norte 0 -- -- 77
2019-04-11 04:00:00 11 12 Norte 23 Norte 0 -- -- 74
2019-04-11 03:00:00 11.8 8 Norte 22 Norte 0 -- -- 71
2019-04-11 02:00:00 12.6 10 Noroeste 21 Noroeste 0 -- -- 71
2019-04-11 01:00:00 13.7 9 Noroeste 21 Noroeste 0 -- -- 69
2019-04-11 00:00:00 14.4 10 Noroeste 22 Noroeste 0 -- -- 66
2019-04-10 23:00:00 15.5 9 Noroeste 23 Noroeste 0 -- -- 61
2019-04-10 22:00:00 16.4 8 Noroeste 26 Noroeste 0 -- -- 55
2019-04-10 21:00:00 17.8 8 Noroeste 20 Noroeste 0 -- -- 43
2019-04-10 20:00:00 18.6 7 Noroeste 29 Noroeste 0 -- -- 41
2019-04-10 19:00:00 19.3 11 Norte 27 Norte 0 -- -- 38
2019-04-10 18:00:00 17.2 13 Oeste 30 Oeste 0 -- -- 65
2019-04-10 17:00:00 17.9 9 Sudoeste 28 Oeste 0 -- -- 62
2019-04-10 16:00:00 17 13 Sudoeste 27 Sudoeste 0 -- -- 65
2019-04-10 15:00:00 17.1 12 Sudoeste 33 Sudoeste 0 -- -- 65
2019-04-10 14:00:00 17.4 15 Oeste 37 Oeste 0 -- -- 56
2019-04-10 13:00:00 15.8 13 Oeste 33 Noroeste 0 -- -- 62
2019-04-10 12:00:00 15.7 10 Noroeste 29 Noroeste 0 -- -- 55
2019-04-10 11:00:00 14.6 11 Noroeste 27 Noroeste 0 -- -- 62
2019-04-10 10:00:00 12.1 9 Noroeste 23 Noroeste 0 -- -- 77
2019-04-10 09:00:00 9.5 7 Norte 13 Norte 0 -- -- 91
2019-04-10 08:00:00 8.5 6 Norte 11 Norte 0 -- -- 91
2019-04-10 07:00:00 8.8 5 Norte 14 Norte 0 -- -- 91
2019-04-10 06:00:00 9.6 8 Norte 17 Norte 0 -- -- 89
2019-04-10 05:00:00 9.8 7 Norte 14 Norte 0 -- -- 86
2019-04-10 04:00:00 10.5 8 Norte 19 Norte 0 -- -- 82
2019-04-10 03:00:00 10.8 5 Norte 18 Noroeste 0 -- -- 81
2019-04-10 02:00:00 11.5 6 Noroeste 21 Noroeste 0 -- -- 75
2019-04-10 01:00:00 12.6 9 Noroeste 22 Noroeste 0 -- -- 68
2019-04-10 00:00:00 13.4 10 Noroeste 28 Noroeste 0 -- -- 62
2019-04-09 23:00:00 14.3 9 Noroeste 20 Noroeste 0 -- -- 60
2019-04-09 22:00:00 15.3 11 Noroeste 22 Oeste 0 -- -- 53
2019-04-09 21:00:00 15.9 9 Oeste 28 Oeste 0 -- -- 70
2019-04-09 20:00:00 16.4 17 Oeste 36 Oeste 0 -- -- 71
2019-04-09 19:00:00 16.3 17 Oeste 36 Sudoeste 0 -- -- 66
2019-04-09 18:00:00 16.6 21 Sudoeste 34 Sudoeste 0 -- -- 65
2019-04-09 17:00:00 16.4 17 Sudoeste 34 Sudoeste 0 -- -- 65
2019-04-09 16:00:00 16.8 19 Sudoeste 32 Sudoeste 0 -- -- 61
2019-04-09 15:00:00 16.9 12 Sudoeste 32 Sudoeste 0 -- -- 65
2019-04-09 14:00:00 15.9 19 Sudoeste 31 Sudoeste 0 -- -- 63
2019-04-09 13:00:00 15.9 12 Sudoeste 24 Sudoeste 0 -- -- 62
2019-04-09 12:00:00 15.6 13 Oeste 24 Oeste 0 -- -- 63
2019-04-09 11:00:00 15.6 12 Oeste 23 Noroeste 0 -- -- 63
2019-04-09 10:00:00 14.6 10 Oeste 24 Oeste 0 -- -- 72
2019-04-09 09:00:00 13.9 5 Noroeste 26 Oeste 0 -- -- 77
2019-04-09 08:00:00 13.7 10 Oeste 22 Oeste 0 -- -- 76
2019-04-09 07:00:00 13.8 8 Oeste 21 Oeste 0 -- -- 76
2019-04-09 06:00:00 13.5 9 Oeste 21 Oeste 0 -- -- 75
2019-04-09 05:00:00 13.7 9 Oeste 23 Noroeste 0 -- -- 73
2019-04-09 04:00:00 11.4 4 Noroeste 10 Noroeste 0 -- -- 79
2019-04-09 03:00:00 10.9 4 Noroeste 10 Norte 0 -- -- 75
2019-04-09 02:00:00 11.7 6 Noroeste 14 Noroeste 0 -- -- 68
2019-04-09 01:00:00 12.8 7 Noroeste 17 Noroeste 0 -- -- 62
2019-04-09 00:00:00 13.4 7 Noroeste 20 Noroeste 0 -- -- 58
2019-04-08 23:00:00 14.2 9 Noroeste 18 Noroeste 0 -- -- 58
2019-04-08 22:00:00 15 8 Noroeste 30 Oeste 0 -- -- 65
2019-04-08 21:00:00 15.5 9 Sudoeste 41 Sudoeste 0 -- -- 75
2019-04-08 20:00:00 15.7 27 Sudoeste 42 Sudoeste 0 -- -- 77
2019-04-08 19:00:00 15.9 24 Sudoeste 37 Sudoeste 0 -- -- 75
2019-04-08 18:00:00 16.5 17 Sudoeste 34 Sudoeste 0 -- -- 75
2019-04-08 17:00:00 16.4 17 Sudoeste 30 Sudoeste 0 -- -- 75
2019-04-08 16:00:00 17.1 12 Sudoeste 27 Oeste 0 -- -- 72
2019-04-08 15:00:00 15.6 18 Sudoeste 30 Sudoeste 0 -- -- 85
2019-04-08 14:00:00 15.6 14 Sudoeste 22 Sudoeste 0 -- -- 85
2019-04-08 13:00:00 15.8 9 Oeste 28 Oeste 0.1 -- -- 87
2019-04-08 12:00:00 15.5 11 Sudoeste 39 Sudoeste 0.4 -- -- 91
2019-04-08 11:00:00 15.4 21 Sudoeste 35 Sudoeste 1.6 -- -- 90
2019-04-08 10:00:00 15.3 21 Sudoeste 31 Sudoeste 0.1 -- -- 89
2019-04-08 09:00:00 15.4 17 Sudoeste 24 Sudoeste 0 -- -- 87
2019-04-08 08:00:00 15.3 14 Sudoeste 27 Sudoeste 0 -- -- 86
2019-04-08 07:00:00 15.3 14 Sudoeste 27 Sudoeste 0 -- -- 84
2019-04-08 06:00:00 15.3 14 Sudoeste 22 Sudoeste 0 -- -- 90
2019-04-08 05:00:00 15.2 17 Sudoeste 23 Sudoeste 0 -- -- 90
2019-04-08 04:00:00 15.4 12 Sudoeste 31 Sudoeste 0 -- -- 90
2019-04-08 03:00:00 15.4 22 Sudoeste 32 Sudoeste 0 -- -- 89
2019-04-08 02:00:00 15.5 22 Sudoeste 32 Oeste 0 -- -- 90
2019-04-08 01:00:00 15.5 18 Sudoeste 30 Sudoeste 0 -- -- 87
2019-04-08 00:00:00 15.3 22 Sudoeste 35 Sudoeste 0 -- -- 84
2019-04-07 23:00:00 15.7 18 Sudoeste 32 Sudoeste 0 -- -- 89
2019-04-07 22:00:00 15.7 20 Sudoeste 37 Sudoeste 0 -- -- 89
2019-04-07 21:00:00 15.6 12 Sudoeste 30 Sudoeste 0 -- -- 87
2019-04-07 20:00:00 15.6 12 Oeste 26 Oeste 0 -- -- 87
2019-04-07 19:00:00 15.6 18 Oeste 37 Oeste 0.1 -- -- 89
2019-04-07 18:00:00 15.6 20 Sudoeste 45 Sudoeste 0.1 -- -- 90
2019-04-07 17:00:00 15.3 29 Sudoeste 46 Sudoeste 0.7 -- -- 94
2019-04-07 16:00:00 14.7 24 Sudoeste 34 Sudoeste 2.8 -- -- 94
2019-04-07 15:00:00 13.8 20 Sudoeste 30 Sudoeste 0.6 -- -- 91
2019-04-07 14:00:00 14.1 15 Sudoeste 30 Sudoeste 0 -- -- 77
2019-04-07 13:00:00 15.4 9 Sudoeste 24 Sudoeste 0 -- -- 65
2019-04-07 12:00:00 16 7 Sudoeste 23 Oeste 0 -- -- 63
2019-04-07 11:00:00 14.8 9 Oeste 23 Oeste 0 -- -- 63
2019-04-07 10:00:00 14.6 14 Oeste 24 Oeste 0 -- -- 64
2019-04-07 09:00:00 14.1 11 Oeste 24 Oeste 0 -- -- 66
2019-04-07 08:00:00 13.4 9 Oeste 26 Oeste 0 -- -- 67
2019-04-07 07:00:00 13.6 12 Oeste 35 Oeste 0 -- -- 67
2019-04-07 06:00:00 13.2 13 Oeste 35 Oeste 0 -- -- 71
2019-04-07 05:00:00 13.8 12 Noroeste 28 Oeste 0 -- -- 67
2019-04-07 04:00:00 13.6 12 Oeste 31 Oeste 0 -- -- 67
2019-04-07 03:00:00 13.7 14 Oeste 27 Oeste 0 -- -- 67
2019-04-07 02:00:00 13.4 12 Oeste 30 Noroeste 0 -- -- 66
2019-04-07 01:00:00 13.7 11 Oeste 30 Oeste 0 -- -- 65
2019-04-07 00:00:00 13.9 11 Oeste 33 Oeste 0 -- -- 64
2019-04-06 23:00:00 14 14 Oeste 35 Oeste 0 -- -- 61
2019-04-06 22:00:00 14.3 18 Noroeste 44 Oeste 0 -- -- 57
2019-04-06 21:00:00 14.7 17 Oeste 44 Oeste 0 -- -- 63
2019-04-06 20:00:00 14.8 17 Oeste 41 Oeste 0 -- -- 65
2019-04-06 19:00:00 14.2 26 Oeste 51 Oeste 0 -- -- 70
2019-04-06 18:00:00 15.5 28 Oeste 53 Oeste 0 -- -- 65
2019-04-06 17:00:00 15.2 21 Oeste 41 Oeste 0 -- -- 63
2019-04-06 16:00:00 14.4 27 Sudoeste 49 Sudoeste 0 -- -- 65
2019-04-06 15:00:00 14.1 15 Oeste 44 Oeste 0 -- -- 67
2019-04-06 14:00:00 15.2 16 Sudoeste 35 Sudoeste 0 -- -- 61
2019-04-06 13:00:00 14.2 9 Oeste 29 Oeste 0 -- -- 65
2019-04-06 12:00:00 13.7 16 Oeste 33 Oeste 0 -- -- 65
2019-04-06 11:00:00 13.5 11 Oeste 24 Oeste 0 -- -- 63
2019-04-06 10:00:00 13 10 Noroeste 21 Noroeste 0 -- -- 65
2019-04-06 09:00:00 11.4 6 Noroeste 21 Noroeste 0 -- -- 68
2019-04-06 08:00:00 11.6 8 Noroeste 27 Noroeste 0 -- -- 67
2019-04-06 07:00:00 12.6 12 Oeste 28 Oeste 0 -- -- 68
2019-04-06 06:00:00 12.5 13 Oeste 27 Oeste 0 -- -- 65
2019-04-06 05:00:00 12.6 11 Oeste 28 Oeste 0 -- -- 68
2019-04-06 04:00:00 12.7 13 Oeste 31 Oeste 0 -- -- 67
2019-04-06 03:00:00 12.7 15 Oeste 28 Oeste 0 -- -- 68
2019-04-06 02:00:00 12.7 13 Oeste 31 Oeste 0 -- -- 67
2019-04-06 01:00:00 12.6 12 Oeste 36 Oeste 0 -- -- 67
2019-04-06 00:00:00 12.5 14 Oeste 38 Oeste 0 -- -- 66
2019-04-05 23:00:00 12.4 15 Noroeste 32 Noroeste 0 -- -- 63
2019-04-05 22:00:00 11.9 16 Noroeste 34 Oeste 0 -- -- 58
2019-04-05 21:00:00 11 12 Noroeste 35 Oeste 0.2 -- -- 68
2019-04-05 20:00:00 11.4 15 Noroeste 50 Noroeste 0.3 -- -- 68
2019-04-05 19:00:00 14 25 Oeste 52 Oeste 0 -- -- 60
2019-04-05 18:00:00 14.3 22 Oeste 44 Oeste 0 -- -- 55
2019-04-05 17:00:00 13.9 19 Sudoeste 46 Sudoeste 0 -- -- 55
2019-04-05 16:00:00 14.5 14 Oeste 38 Oeste 0 -- -- 52
2019-04-05 15:00:00 12.3 14 Oeste 31 Oeste 0 -- -- 56
2019-04-05 14:00:00 14.3 15 Oeste 40 Oeste 0 -- -- 52
2019-04-05 13:00:00 14 11 Oeste 38 Noroeste 0 -- -- 58
2019-04-05 12:00:00 12.6 15 Noroeste 34 Noroeste 0 -- -- 60
2019-04-05 11:00:00 11.5 15 Noroeste 35 Noroeste 0 -- -- 67
2019-04-05 10:00:00 12.3 18 Noroeste 40 Oeste 0.1 -- -- 75
2019-04-05 09:00:00 12.6 10 Oeste 22 Oeste 0 -- -- 89
2019-04-05 08:00:00 11.7 10 Oeste 40 Sudoeste 3.3 -- -- 91
2019-04-05 07:00:00 13.6 33 Sudoeste 47 Sudoeste 0.8 -- -- 86
2019-04-05 06:00:00 12.1 11 Oeste 53 Sudoeste 2.8 -- -- 85
2019-04-05 05:00:00 13.5 29 Sudoeste 59 Sudoeste 0 -- -- 86
2019-04-05 04:00:00 13 25 Sudoeste 45 Sudoeste 1.3 -- -- 86
2019-04-05 03:00:00 12.8 15 Sudoeste 28 Oeste 1.6 -- -- 86
2019-04-05 02:00:00 12.9 14 Oeste 32 Sudoeste 0.5 -- -- 79
2019-04-05 01:00:00 14 15 Oeste 28 Noroeste 0 -- -- 58
2019-04-05 00:00:00 13.8 13 Oeste 29 Oeste 0 -- -- 55
2019-04-04 23:00:00 13.4 9 Noroeste 30 Noroeste 0 -- -- 51
2019-04-04 22:00:00 14.7 12 Noroeste 40 Sudoeste 0 -- -- 48
2019-04-04 21:00:00 15.3 17 Sudoeste 42 Sudoeste 0 -- -- 61
2019-04-04 20:00:00 15.6 23 Sudoeste 43 Sudoeste 0 -- -- 52
2019-04-04 19:00:00 15.6 23 Sudoeste 41 Sudoeste 0 -- -- 48
2019-04-04 18:00:00 16.1 19 Sudoeste 36 Sudoeste 0 -- -- 47
2019-04-04 17:00:00 17 19 Sudoeste 31 Sudoeste 0 -- -- 39
2019-04-04 16:00:00 18.2 10 Sudoeste 26 Oeste 0 -- -- 38
2019-04-04 15:00:00 16.8 10 Sudoeste 23 Sudoeste 0 -- -- 41
2019-04-04 14:00:00 16.5 9 Sudoeste 21 Sudoeste 0 -- -- 42
2019-04-04 13:00:00 15.1 9 Sudoeste 21 Sudoeste 0 -- -- 44
2019-04-04 12:00:00 15.1 5 Noroeste 17 Norte 0 -- -- 41
2019-04-04 11:00:00 12.6 10 Noroeste 21 Norte 0 -- -- 52
2019-04-04 10:00:00 10.1 14 Norte 26 Norte 0 -- -- 62
2019-04-04 09:00:00 7.7 9 Norte 19 Norte 0 -- -- 74
2019-04-04 08:00:00 6.5 6 Noroeste 11 Norte 0 -- -- 77
2019-04-04 07:00:00 7 4 Noroeste 12 Norte 0 -- -- 74
2019-04-04 06:00:00 7.8 6 Norte 17 Noroeste 0 -- -- 69
2019-04-04 05:00:00 8.5 7 Norte 26 Noroeste 0 -- -- 66
2019-04-04 04:00:00 9.5 12 Norte 30 Norte 0 -- -- 61
2019-04-04 03:00:00 10.6 13 Norte 31 Norte 0 -- -- 57
2019-04-04 02:00:00 11.7 15 Norte 32 Norte 0 -- -- 52
2019-04-04 01:00:00 12.4 10 Norte 21 Noroeste 0 -- -- 50
2019-04-04 00:00:00 12.6 6 Noroeste 15 Noroeste 0 -- -- 51
2019-04-03 23:00:00 13.4 6 Noroeste 10 Noroeste 0 -- -- 50
2019-04-03 22:00:00 15.2 5 Noroeste 15 Noroeste 0 -- -- 46
2019-04-03 21:00:00 16.9 7 Noroeste 27 Noroeste 0 -- -- 41
2019-04-03 20:00:00 19 12 Noroeste 31 Noroeste 0 -- -- 37
2019-04-03 19:00:00 18.8 10 Oeste 29 Oeste 0 -- -- 54
2019-04-03 18:00:00 18 17 Oeste 32 Oeste 0 -- -- 56
2019-04-03 17:00:00 19.5 11 Oeste 28 Oeste 0 -- -- 47
2019-04-03 16:00:00 19 17 Oeste 28 Oeste 0 -- -- 46
2019-04-03 15:00:00 19.5 13 Oeste 28 Oeste 0 -- -- 44
2019-04-03 14:00:00 20.6 13 Noroeste 30 Norte 0 -- -- 35
2019-04-03 13:00:00 19.4 13 Norte 28 Norte 0 -- -- 37
2019-04-03 12:00:00 18.1 9 Noroeste 24 Norte 0 -- -- 46
2019-04-03 11:00:00 15.9 8 Norte 21 Norte 0 -- -- 59
2019-04-03 10:00:00 13.2 11 Norte 21 Norte 0 -- -- 77
2019-04-03 09:00:00 11.6 12 Norte 23 Norte 0 -- -- 86
2019-04-03 08:00:00 11.2 14 Norte 24 Nordeste 0 -- -- 87
2019-04-03 07:00:00 11.5 13 Norte 22 Norte 0 -- -- 86
2019-04-03 06:00:00 11.7 10 Norte 19 Norte 0 -- -- 85
2019-04-03 05:00:00 12 9 Norte 19 Norte 0 -- -- 85
2019-04-03 04:00:00 11.8 4 Norte 11 Noroeste 0 -- -- 88
2019-04-03 03:00:00 13 5 Noroeste 9 Norte 0 -- -- 91
2019-04-03 02:00:00 13.6 3 Noroeste 9 Oeste 0 -- -- 90
2019-04-03 01:00:00 14.6 3 Noroeste 13 Oeste 0 -- -- 87
2019-04-03 00:00:00 15.1 5 Noroeste 14 Noroeste 0 -- -- 85
2019-04-02 23:00:00 15.6 6 Noroeste 17 Oeste 0 -- -- 82
2019-04-02 22:00:00 15.9 8 Oeste 21 Oeste 0 -- -- 84
2019-04-02 21:00:00 16.4 9 Oeste 20 Oeste 0 -- -- 82
2019-04-02 20:00:00 17.4 5 Oeste 15 Oeste 0 -- -- 75
2019-04-02 19:00:00 17.4 10 Oeste 20 Sudoeste 0 -- -- 72
2019-04-02 18:00:00 17.6 11 Sudoeste 18 Oeste 0 -- -- 70
2019-04-02 17:00:00 18.6 8 Oeste 19 Sudoeste 0 -- -- 65
2019-04-02 16:00:00 18.6 8 Sudoeste 17 Sudoeste 0 -- -- 65
2019-04-02 15:00:00 17.9 9 Sudoeste 16 Sudoeste 0 -- -- 66
2019-04-02 14:00:00 18.4 10 Sur 15 Sudoeste 0 -- -- 63
2019-04-02 13:00:00 18.9 6 Este 18 Este 0 -- -- 60
2019-04-02 12:00:00 17 7 Este 15 Este 0 -- -- 68
2019-04-02 11:00:00 14.5 6 Nordeste 15 Este 0 -- -- 86
2019-04-02 10:00:00 13.1 8 Nordeste 32 Norte 0 -- -- 94
2019-04-02 09:00:00 11.5 8 Nordeste 16 Nordeste 0 -- -- 94
2019-04-02 08:00:00 11.6 7 Nordeste 14 Este 0 -- -- 94
2019-04-02 07:00:00 11.1 8 Nordeste 14 Este 0 -- -- 94
2019-04-02 06:00:00 11.3 8 Nordeste 13 Nordeste 0 -- -- 94
2019-04-02 05:00:00 10.9 8 Nordeste 12 Nordeste 0 -- -- 92
2019-04-02 04:00:00 14.6 5 Sur 11 Sur 0 -- -- 91
2019-04-02 03:00:00 12.7 4 Sudeste 8 Sudeste 0 -- -- 91
2019-04-02 02:00:00 12.2 3 Sudeste 11 Sudoeste 0 -- -- 87
2019-04-02 01:00:00 15.1 6 Sudoeste 11 Sudoeste 0 -- -- 84
2019-04-02 00:00:00 15.7 5 Sudoeste 11 Oeste 0 -- -- 78
2019-04-01 23:00:00 15.7 6 Sudoeste 15 Sudoeste 0 -- -- 75
2019-04-01 22:00:00 16 9 Sudoeste 18 Sudoeste 0 -- -- 77
2019-04-01 21:00:00 16.3 8 Sudoeste 21 Sudoeste 0 -- -- 74
2019-04-01 20:00:00 17.1 10 Sudoeste 23 Sudoeste 0 -- -- 72
2019-04-01 19:00:00 17.5 18 Sudoeste 27 Sudoeste 0 -- -- 72
2019-04-01 18:00:00 18.3 15 Sudoeste 23 Sudoeste 0 -- -- 70
2019-04-01 17:00:00 18.5 16 Sudoeste 23 Sudoeste 0 -- -- 67
2019-04-01 16:00:00 18.9 16 Sudoeste 24 Sudoeste 0 -- -- 67
2019-04-01 15:00:00 18 15 Sudoeste 24 Sudoeste 0 -- -- 71
2019-04-01 14:00:00 18 12 Sudoeste 19 Sur 0.4 -- -- 70
2019-04-01 13:00:00 17.1 10 Sur 15 Sur 0 -- -- 75
2019-04-01 12:00:00 17.6 7 Sur 11 Sur 0 -- -- 78
2019-04-01 11:00:00 15.7 3 Sudoeste 8 Sur 0 -- -- 94
2019-04-01 10:00:00 14 5 Este 13 Nordeste 0 -- -- 94
2019-04-01 09:00:00 12.7 7 Nordeste 13 Nordeste 0 -- -- 94
2019-04-01 08:00:00 12 6 Nordeste 12 Nordeste 0 -- -- 94
2019-04-01 07:00:00 12.8 8 Nordeste 12 Nordeste 0 -- -- 93
2019-04-01 06:00:00 15.3 6 Sudoeste 12 Sur 0 -- -- 92
2019-04-01 05:00:00 15 8 Sur 19 Sur 0 -- -- 94
2019-04-01 04:00:00 15.2 7 Sur 15 Sudeste 0 -- -- 94
2019-04-01 03:00:00 13.2 5 Este 13 Nordeste 0.1 -- -- 92
2019-04-01 02:00:00 12.8 7 Este 17 Este 6.5 -- -- 92
2019-04-01 01:00:00 14 5 Este 8 Este 0 -- -- 91
2019-04-01 00:00:00 14.3 4 Nordeste 7 Norte 0 -- -- 91
2019-03-31 23:00:00 15.1 4 Norte 10 Oeste 0 -- -- 90
2019-03-31 22:00:00 15.5 7 Sudoeste 12 Sudoeste 0 -- -- 90
2019-03-31 21:00:00 15.6 3 Sudoeste 12 Oeste 0 -- -- 84
2019-03-31 20:00:00 16.7 5 Sudoeste 15 Oeste 0 -- -- 77
2019-03-31 19:00:00 17.5 8 Oeste 17 Oeste 0.1 -- -- 73
2019-03-31 18:00:00 17.7 9 Sudoeste 19 Sudoeste 0 -- -- 72
2019-03-31 17:00:00 17.4 12 Sudoeste 18 Sudoeste 0.2 -- -- 74
2019-03-31 16:00:00 18.6 8 Sudoeste 19 Sudoeste 0 -- -- 67
2019-03-31 15:00:00 17.8 14 Sudoeste 22 Sudoeste 0 -- -- 75
2019-03-31 14:00:00 18.1 12 Sudoeste 18 Sudoeste 0 -- -- 72
2019-03-31 13:00:00 17.5 9 Sur 14 Sudeste 0 -- -- 67
2019-03-31 12:00:00 19.5 6 Este 19 Sudeste 0 -- -- 55
2019-03-31 11:00:00 18 8 Nordeste 16 Nordeste 0 -- -- 62
2019-03-31 10:00:00 15 8 Nordeste 13 Nordeste 0 -- -- 76
2019-03-31 09:00:00 13.9 7 Nordeste 15 Nordeste 0 -- -- 86
2019-03-31 08:00:00 13.6 4 Nordeste 9 Nordeste 0 -- -- 87
2019-03-31 07:00:00 13.9 4 Nordeste 9 Nordeste 0 -- -- 86
2019-03-31 06:00:00 13.8 6 Nordeste 10 Nordeste 0 -- -- 87
2019-03-31 05:00:00 13.7 5 Nordeste 9 Norte 0 -- -- 87
2019-03-31 03:00:00 14.1 3 Norte 5 Norte 0 -- -- 82
2019-03-31 01:00:00 14.7 4 Nordeste 13 Sur 0 -- -- 82
2019-03-31 00:00:00 13.7 4 Sur 8 Sudoeste 0 -- -- 89
2019-03-30 23:00:00 13.6 0 Calma 10 Sur 0 -- -- 84
2019-03-30 22:00:00 15.5 6 Sudeste 22 Sudeste 0 -- -- 79
2019-03-30 21:00:00 15.9 9 Sur 24 Sudeste 0 -- -- 77
2019-03-30 20:00:00 16.5 12 Sur 25 Sudeste 0 -- -- 76
2019-03-30 19:00:00 17.1 12 Sur 27 Sur 0 -- -- 77
2019-03-30 18:00:00 18.8 10 Sur 31 Sur 0 -- -- 70
2019-03-30 17:00:00 18.6 14 Sur 26 Sur 0 -- -- 68
2019-03-30 16:00:00 20.4 8 Sudoeste 17 Sur 0 -- -- 55
2019-03-30 15:00:00 20.4 9 Sudoeste 19 Sur 0 -- -- 52
2019-03-30 14:00:00 19.8 12 Sur 18 Sur 0 -- -- 56
2019-03-30 13:00:00 19.5 11 Sur 22 Sudeste 0 -- -- 56
2019-03-30 12:00:00 18.4 13 Sur 22 Sur 0 -- -- 56
2019-03-30 11:00:00 18.6 10 Nordeste 22 Nordeste 0 -- -- 51
2019-03-30 10:00:00 17.2 9 Nordeste 22 Nordeste 0 -- -- 58
2019-03-30 09:00:00 13.6 11 Nordeste 22 Nordeste 0 -- -- 72
2019-03-30 08:00:00 10.9 10 Nordeste 24 Nordeste 0 -- -- 82
2019-03-30 07:00:00 10.3 13 Nordeste 23 Nordeste 0 -- -- 82
2019-03-30 06:00:00 10.2 14 Nordeste 24 Nordeste 0 -- -- 82
2019-03-30 05:00:00 10.4 11 Nordeste 17 Nordeste 0 -- -- 81
2019-03-30 04:00:00 10.7 10 Nordeste 16 Nordeste 0 -- -- 81
2019-03-30 03:00:00 10.8 10 Nordeste 16 Nordeste 0 -- -- 82
2019-03-30 02:00:00 10.6 8 Nordeste 13 Este 0 -- -- 82
2019-03-30 01:00:00 10.6 6 Este 10 Este 0 -- -- 84
2019-03-30 00:00:00 11.3 5 Este 10 Nordeste 0 -- -- 77
2019-03-29 23:00:00 12.4 6 Este 9 Nordeste 0 -- -- 74
2019-03-29 22:00:00 13.3 4 Nordeste 16 Sudeste 0 -- -- 72
2019-03-29 21:00:00 15.9 7 Sudeste 21 Sudeste 0 -- -- 70
2019-03-29 20:00:00 16.7 8 Sudeste 21 Sudeste 0 -- -- 72
2019-03-29 19:00:00 17.8 7 Sur 21 Sudeste 0 -- -- 69
2019-03-29 18:00:00 17 13 Sudeste 25 Sudeste 0 -- -- 68
2019-03-29 17:00:00 18.1 13 Sur 30 Sur 0 -- -- 63
2019-03-29 16:00:00 19.4 10 Sudoeste 18 Sudoeste 0 -- -- 60
2019-03-29 15:00:00 19.9 10 Sudoeste 14 Sudoeste 0 -- -- 53
2019-03-29 14:00:00 19.3 10 Sudoeste 21 Sur 0 -- -- 52
2019-03-29 13:00:00 19.4 12 Sur 22 Sur 0 -- -- 49
2019-03-29 12:00:00 19.5 9 Sudeste 27 Este 0 -- -- 42
2019-03-29 11:00:00 18.4 10 Este 23 Este 0 -- -- 42
2019-03-29 10:00:00 15.9 9 Este 21 Este 0 -- -- 48
2019-03-29 09:00:00 13.5 9 Nordeste 19 Este 0 -- -- 60
2019-03-29 08:00:00 9.7 10 Nordeste 18 Nordeste 0 -- -- 74
2019-03-29 07:00:00 8.3 10 Nordeste 16 Nordeste 0 -- -- 79
2019-03-29 06:00:00 8.1 10 Nordeste 18 Nordeste 0 -- -- 77
2019-03-29 05:00:00 8.5 10 Nordeste 17 Nordeste 0 -- -- 72
2019-03-29 04:00:00 8.8 10 Nordeste 16 Nordeste 0 -- -- 65
2019-03-29 03:00:00 8.7 10 Nordeste 17 Nordeste 0 -- -- 59
2019-03-29 02:00:00 9.7 12 Nordeste 19 Nordeste 0 -- -- 55
2019-03-29 01:00:00 10.7 10 Nordeste 16 Nordeste 0 -- -- 53
2019-03-29 00:00:00 10.9 8 Nordeste 14 Este 0 -- -- 53
2019-03-28 23:00:00 11.4 4 Nordeste 17 Este 0 -- -- 56
2019-03-28 22:00:00 12.6 7 Nordeste 12 Sudeste 0 -- -- 55
2019-03-28 21:00:00 15.3 5 Este 18 Este 0 -- -- 51
2019-03-28 20:00:00 17 6 Sudeste 20 Sur 0 -- -- 60
2019-03-28 19:00:00 18.3 11 Sur 20 Sur 0 -- -- 61
2019-03-28 18:00:00 18.8 8 Sudoeste 12 Sur 0 -- -- 61
2019-03-28 17:00:00 19.7 5 Sudoeste 21 Sudoeste 0 -- -- 57
2019-03-28 16:00:00 18.6 18 Sudoeste 28 Sudeste 0 -- -- 52
2019-03-28 15:00:00 22.2 9 Sudeste 28 Sudeste 0 -- -- 32
2019-03-28 14:00:00 21.6 10 Este 27 Este 0 -- -- 33
2019-03-28 13:00:00 20.2 13 Este 30 Este 0 -- -- 37
2019-03-28 12:00:00 18 11 Este 26 Este 0 -- -- 42
2019-03-28 11:00:00 17.7 12 Este 27 Este 0 -- -- 47
2019-03-28 10:00:00 15.4 10 Este 30 Este 0 -- -- 56
2019-03-28 09:00:00 12.1 15 Nordeste 27 Nordeste 0 -- -- 67
2019-03-28 08:00:00 9.3 11 Nordeste 19 Este 0 -- -- 81
2019-03-28 07:00:00 8.5 12 Nordeste 22 Este 0 -- -- 79
2019-03-28 06:00:00 9.2 13 Nordeste 22 Nordeste 0 -- -- 73
2019-03-28 05:00:00 9.2 12 Nordeste 20 Nordeste 0 -- -- 70
2019-03-28 04:00:00 10.3 13 Nordeste 24 Nordeste 0 -- -- 66
2019-03-28 03:00:00 10.6 10 Nordeste 19 Nordeste 0 -- -- 66
2019-03-28 02:00:00 10.5 11 Nordeste 17 Nordeste 0 -- -- 68
2019-03-28 01:00:00 10.7 10 Nordeste 15 Nordeste 0 -- -- 68
2019-03-28 00:00:00 10.8 9 Nordeste 18 Sudeste 0 -- -- 65
2019-03-27 23:00:00 14.2 12 Sudeste 31 Sudeste 0 -- -- 60
2019-03-27 22:00:00 15.1 15 Sudeste 35 Sudeste 0 -- -- 60
2019-03-27 21:00:00 15.4 19 Sudeste 38 Sudeste 0 -- -- 58
2019-03-27 20:00:00 16.2 15 Sudeste 31 Sur 0 -- -- 55
2019-03-27 19:00:00 17.6 16 Sudeste 28 Sur 0 -- -- 53
2019-03-27 18:00:00 18.9 12 Sur 44 Sudoeste 0 -- -- 52
2019-03-27 17:00:00 19.3 10 Sudoeste 21 Sur 0 -- -- 51
2019-03-27 16:00:00 20.1 10 Sudoeste 18 Sur 0 -- -- 52
2019-03-27 15:00:00 19.4 13 Sudoeste 24 Sudoeste 0 -- -- 47
2019-03-27 14:00:00 20.1 13 Sur 31 Este 0 -- -- 42
2019-03-27 13:00:00 20.5 11 Este 33 Este 0 -- -- 38
2019-03-27 12:00:00 19 14 Este 29 Nordeste 0 -- -- 39
2019-03-27 11:00:00 17.7 13 Este 26 Este 0 -- -- 46
2019-03-27 10:00:00 14.2 13 Este 26 Este 0 -- -- 55
2019-03-27 09:00:00 13.1 11 Este 24 Nordeste 0 -- -- 65
2019-03-27 08:00:00 10.7 11 Nordeste 20 Nordeste 0 -- -- 77
2019-03-27 07:00:00 10.2 10 Nordeste 16 Nordeste 0 -- -- 74
2019-03-27 06:00:00 11.8 9 Nordeste 17 Este 0 -- -- 65
2019-03-27 05:00:00 13 9 Este 18 Este 0 -- -- 58
2019-03-27 04:00:00 14.2 10 Este 31 Sudeste 0 -- -- 50
2019-03-27 03:00:00 15.3 14 Sudeste 32 Sudeste 0 -- -- 51
2019-03-27 02:00:00 14.6 10 Este 28 Sudeste 0 -- -- 60
2019-03-27 01:00:00 15.7 13 Sudeste 33 Sudeste 0 -- -- 63
2019-03-27 00:00:00 16.2 13 Sudeste 32 Sudeste 0 -- -- 63
2019-03-26 23:00:00 16.6 11 Sudeste 27 Sudeste 0 -- -- 64
2019-03-26 22:00:00 16.3 7 Sudeste 22 Sudeste 0 -- -- 65
2019-03-26 21:00:00 17.2 9 Sudeste 23 Sudeste 0 -- -- 63
2019-03-26 20:00:00 18.4 5 Sudeste 14 Sudeste 0 -- -- 55
2019-03-26 19:00:00 18.6 5 Sur 18 Sudeste 0 -- -- 63
2019-03-26 18:00:00 20.2 9 Sudeste 24 Sudeste 0 -- -- 55
2019-03-26 17:00:00 20.5 13 Sudeste 28 Sur 0 -- -- 55
2019-03-26 16:00:00 20.2 13 Sur 28 Sur 0 -- -- 56
2019-03-26 15:00:00 21.8 9 Sur 16 Sudoeste 0 -- -- 53
2019-03-26 14:00:00 23.3 8 Sur 28 Este 0 -- -- 44
2019-03-26 13:00:00 24.2 13 Este 27 Sudeste 0 -- -- 39
2019-03-26 12:00:00 23.4 12 Este 32 Este 0 -- -- 41
2019-03-26 11:00:00 21.2 14 Este 29 Este 0 -- -- 46
2019-03-26 10:00:00 18.2 15 Nordeste 32 Este 0 -- -- 53
2019-03-26 09:00:00 15.9 12 Nordeste 24 Nordeste 0 -- -- 62
2019-03-26 08:00:00 13.5 13 Nordeste 24 Nordeste 0 -- -- 67
2019-03-26 07:00:00 13.4 13 Nordeste 24 Nordeste 0 -- -- 67
2019-03-26 06:00:00 13.6 13 Nordeste 23 Nordeste 0 -- -- 68
2019-03-26 05:00:00 13.4 12 Nordeste 22 Nordeste 0 -- -- 67
2019-03-26 04:00:00 13.2 14 Nordeste 23 Norte 0 -- -- 66
2019-03-26 03:00:00 13.7 15 Nordeste 23 Nordeste 0 -- -- 65
2019-03-26 02:00:00 14 12 Nordeste 20 Nordeste 0 -- -- 67
2019-03-26 01:00:00 13.7 10 Nordeste 16 Nordeste 0 -- -- 70
2019-03-26 00:00:00 13.8 5 Nordeste 11 Este 0 -- -- 68
2019-03-25 23:00:00 14.1 4 Nordeste 9 Este 0 -- -- 70
2019-03-25 22:00:00 14.8 6 Nordeste 9 Nordeste 0 -- -- 72
2019-03-25 21:00:00 15.9 4 Norte 8 Norte 0 -- -- 70
2019-03-25 20:00:00 17.8 5 Noroeste 10 Oeste 0 -- -- 63
2019-03-25 19:00:00 19.5 5 Oeste 13 Oeste 0 -- -- 60
2019-03-25 18:00:00 20.2 5 Oeste 27 Nordeste 0 -- -- 62
2019-03-25 17:00:00 25.9 13 Este 36 Este 0 -- -- 34
2019-03-25 16:00:00 25.2 14 Este 32 Este 0 -- -- 34
2019-03-25 15:00:00 25.5 14 Este 33 Este 0 -- -- 34
2019-03-25 14:00:00 24.2 15 Este 38 Este 0 -- -- 37
2019-03-25 13:00:00 23.4 13 Este 34 Este 0 -- -- 39
2019-03-25 12:00:00 22.1 13 Este 32 Este 0 -- -- 42
2019-03-25 11:00:00 20.1 15 Nordeste 30 Este 0 -- -- 48
2019-03-25 10:00:00 17.6 12 Nordeste 23 Nordeste 0 -- -- 56
2019-03-25 09:00:00 14.1 11 Nordeste 21 Nordeste 0 -- -- 66
2019-03-25 08:00:00 12.2 12 Nordeste 21 Nordeste 0 -- -- 70
2019-03-25 07:00:00 11.3 10 Nordeste 18 Nordeste 0 -- -- 71
2019-03-25 06:00:00 11.8 10 Nordeste 18 Nordeste 0 -- -- 70
2019-03-25 05:00:00 12 12 Nordeste 19 Nordeste 0 -- -- 69
2019-03-25 04:00:00 11.5 11 Nordeste 17 Nordeste 0 -- -- 70
2019-03-25 03:00:00 12.1 11 Nordeste 15 Nordeste 0 -- -- 67
2019-03-25 02:00:00 12.4 11 Nordeste 16 Nordeste 0 -- -- 67
2019-03-25 01:00:00 12.9 9 Nordeste 15 Nordeste 0 -- -- 67
2019-03-25 00:00:00 13.6 10 Nordeste 15 Nordeste 0 -- -- 67
2019-03-24 23:00:00 13.7 7 Nordeste 12 Nordeste 0 -- -- 69
2019-03-24 22:00:00 14.3 6 Nordeste 12 Este 0 -- -- 67
2019-03-24 21:00:00 16.6 6 Sudeste 21 Sur 0 -- -- 69
2019-03-24 20:00:00 17.6 5 Sudeste 17 Sudeste 0 -- -- 70
2019-03-24 19:00:00 19 2 Sur 11 Sudoeste 0 -- -- 67
2019-03-24 18:00:00 19.2 6 Sudoeste 11 Sudoeste 0 -- -- 66
2019-03-24 17:00:00 20.2 5 Sudoeste 14 Sudoeste 0 -- -- 67
2019-03-24 16:00:00 20.6 7 Sudoeste 17 Sur 0 -- -- 58
2019-03-24 15:00:00 21.1 11 Sur 22 Sudeste 0 -- -- 54
2019-03-24 14:00:00 22.6 6 Sudeste 31 Sudeste 0 -- -- 43
2019-03-24 13:00:00 21.5 12 Nordeste 26 Nordeste 0 -- -- 44
2019-03-24 12:00:00 19.8 12 Nordeste 24 Este 0 -- -- 48
2019-03-24 11:00:00 18.8 12 Este 32 Este 0 -- -- 52
2019-03-24 10:00:00 16.6 12 Este 28 Este 0 -- -- 59
2019-03-24 09:00:00 13.7 13 Nordeste 23 Nordeste 0 -- -- 70
2019-03-24 08:00:00 11.3 13 Nordeste 22 Nordeste 0 -- -- 77
2019-03-24 07:00:00 10.8 12 Nordeste 19 Nordeste 0 -- -- 79
2019-03-24 06:00:00 10.4 12 Nordeste 20 Nordeste 0 -- -- 81
2019-03-24 05:00:00 10.6 12 Nordeste 20 Nordeste 0 -- -- 80
2019-03-24 04:00:00 10.9 12 Nordeste 20 Nordeste 0 -- -- 76
2019-03-24 03:00:00 11 13 Nordeste 22 Nordeste 0 -- -- 72
2019-03-24 02:00:00 11.3 13 Nordeste 20 Nordeste 0 -- -- 66
2019-03-24 01:00:00 11.8 10 Nordeste 17 Nordeste 0 -- -- 61
2019-03-24 00:00:00 12.2 10 Nordeste 17 Nordeste 0 -- -- 61
2019-03-23 23:00:00 13.3 7 Este 17 Este 0 -- -- 58
2019-03-23 22:00:00 14.1 8 Este 15 Nordeste 0 -- -- 55
2019-03-23 21:00:00 15.5 6 Este 12 Este 0 -- -- 51
2019-03-23 20:00:00 17.4 6 Este 23 Este 0 -- -- 46
2019-03-23 19:00:00 20.1 12 Este 31 Este 0 -- -- 41
2019-03-23 18:00:00 21.8 12 Este 33 Este 0 -- -- 38
2019-03-23 17:00:00 20.4 6 Este 21 Este 0 -- -- 47
2019-03-23 16:00:00 20.4 7 Sur 20 Sudeste 0 -- -- 51
2019-03-23 15:00:00 20.3 8 Sur 27 Este 0 -- -- 46
2019-03-23 14:00:00 21.5 15 Este 35 Este 0 -- -- 41
2019-03-23 13:00:00 21.3 16 Este 41 Este 0 -- -- 42
2019-03-23 12:00:00 20 16 Este 38 Este 0 -- -- 46
2019-03-23 11:00:00 18.7 13 Este 37 Este 0 -- -- 48
2019-03-23 10:00:00 16.6 16 Este 36 Este 0 -- -- 55
2019-03-23 09:00:00 13.8 15 Nordeste 28 Nordeste 0 -- -- 66
2019-03-23 08:00:00 11.6 15 Nordeste 27 Nordeste 0 -- -- 72
2019-03-23 07:00:00 11 15 Nordeste 28 Nordeste 0 -- -- 75
2019-03-23 06:00:00 10.3 13 Nordeste 23 Nordeste 0 -- -- 74
2019-03-23 05:00:00 9.9 14 Nordeste 22 Nordeste 0 -- -- 70
2019-03-23 04:00:00 10 11 Nordeste 20 Nordeste 0 -- -- 66
2019-03-23 03:00:00 10.5 13 Nordeste 22 Nordeste 0 -- -- 63
2019-03-23 02:00:00 10.4 13 Nordeste 22 Nordeste 0 -- -- 64
2019-03-23 01:00:00 11 6 Nordeste 14 Nordeste 0 -- -- 63
2019-03-23 00:00:00 12 6 Este 15 Este 0 -- -- 60
2019-03-22 23:00:00 14.2 6 Este 20 Sudeste 0 -- -- 56
2019-03-22 22:00:00 11.4 4 Este 8 Este 0 -- -- 74
2019-03-22 21:00:00 13.3 5 Este 16 Norte 0 -- -- 73
2019-03-22 20:00:00 15.9 4 Oeste 10 Noroeste 0 -- -- 72
2019-03-22 19:00:00 17.3 5 Oeste 20 Sudoeste 0 -- -- 67
2019-03-22 18:00:00 18.2 11 Sudoeste 31 Este 0 -- -- 52
2019-03-22 17:00:00 21.1 11 Este 27 Este 0 -- -- 34
2019-03-22 16:00:00 21.5 10 Este 29 Sudeste 0 -- -- 34
2019-03-22 15:00:00 20.9 10 Este 33 Nordeste 0 -- -- 34
2019-03-22 14:00:00 20 13 Nordeste 31 Este 0 -- -- 34
2019-03-22 13:00:00 19.7 12 Este 34 Nordeste 0 -- -- 37
2019-03-22 12:00:00 18.4 16 Este 31 Nordeste 0 -- -- 43
2019-03-22 11:00:00 16.8 13 Este 32 Este 0 -- -- 53
2019-03-22 10:00:00 14.4 15 Este 31 Este 0 -- -- 61
2019-03-22 09:00:00 11.5 13 Nordeste 24 Nordeste 0 -- -- 70
2019-03-22 08:00:00 8.2 12 Nordeste 19 Nordeste 0 -- -- 76
2019-03-22 07:00:00 7.7 13 Nordeste 21 Nordeste 0 -- -- 73
2019-03-22 06:00:00 8.4 13 Nordeste 22 Nordeste 0 -- -- 70
2019-03-22 05:00:00 9.2 14 Nordeste 22 Nordeste 0 -- -- 68
2019-03-22 04:00:00 9.2 14 Nordeste 18 Nordeste 0 -- -- 70
2019-03-22 03:00:00 8.9 10 Nordeste 15 Nordeste 0 -- -- 70
2019-03-22 02:00:00 8.9 10 Nordeste 15 Nordeste 0 -- -- 72
2019-03-22 01:00:00 9 8 Nordeste 14 Nordeste 0 -- -- 72
2019-03-22 00:00:00 10.1 6 Nordeste 12 Este 0 -- -- 67
2019-03-21 23:00:00 11.8 6 Este 17 Sudeste 0 -- -- 63
2019-03-21 22:00:00 14 9 Sudeste 26 Sudeste 0 -- -- 60
2019-03-21 21:00:00 15.2 12 Sudeste 27 Sudeste 0 -- -- 57
2019-03-21 20:00:00 15.4 6 Sur 13 Sudoeste 0 -- -- 57
2019-03-21 19:00:00 16.9 10 Sudoeste 19 Sudoeste 0 -- -- 51
2019-03-21 18:00:00 17.5 12 Sudoeste 28 Sudoeste 0 -- -- 50
2019-03-21 17:00:00 18.6 14 Sudeste 33 Este 0 -- -- 34
2019-03-21 16:00:00 20.1 12 Este 32 Este 0 -- -- 31
2019-03-21 15:00:00 20.3 10 Este 35 Este 0 -- -- 29
2019-03-21 14:00:00 19.4 14 Este 37 Este 0 -- -- 30
2019-03-21 13:00:00 18.9 15 Este 37 Este 0 -- -- 34
2019-03-21 12:00:00 17.3 16 Este 37 Este 0 -- -- 38
2019-03-21 11:00:00 16.7 14 Este 39 Este 0 -- -- 47
2019-03-21 10:00:00 15 11 Nordeste 28 Nordeste 0 -- -- 56
2019-03-21 09:00:00 11.1 15 Nordeste 26 Nordeste 0 -- -- 71
2019-03-21 08:00:00 8.4 13 Nordeste 22 Nordeste 0 -- -- 80
2019-03-21 07:00:00 8.1 13 Nordeste 21 Nordeste 0 -- -- 78
2019-03-21 06:00:00 8.3 12 Nordeste 21 Nordeste 0 -- -- 76
2019-03-21 05:00:00 8.4 8 Nordeste 13 Nordeste 0 -- -- 75
2019-03-21 04:00:00 8.3 6 Nordeste 11 Nordeste 0 -- -- 75
2019-03-21 03:00:00 8.3 9 Nordeste 13 Nordeste 0 -- -- 75
2019-03-21 02:00:00 8.2 6 Nordeste 11 Nordeste 0 -- -- 74
2019-03-21 01:00:00 8.9 6 Nordeste 9 Nordeste 0 -- -- 70
2019-03-21 00:00:00 10.3 5 Nordeste 14 Sudeste 0 -- -- 65
2019-03-20 23:00:00 13.6 7 Sudeste 23 Sudeste 0 -- -- 60
2019-03-20 22:00:00 14.3 11 Sudeste 26 Sur 0 -- -- 58
2019-03-20 21:00:00 14.9 12 Sudeste 24 Sudeste 0 -- -- 60
2019-03-20 20:00:00 15.8 7 Sur 20 Sudeste 0 -- -- 60
2019-03-20 19:00:00 16.8 13 Sur 23 Sur 0 -- -- 56
2019-03-20 18:00:00 17.3 14 Sudoeste 23 Sudoeste 0 -- -- 57
2019-03-20 17:00:00 17.3 15 Sudoeste 22 Sudoeste 0 -- -- 53
2019-03-20 16:00:00 18.6 15 Sudoeste 24 Sudoeste 0 -- -- 55
2019-03-20 15:00:00 17.8 12 Sudoeste 23 Sudoeste 0 -- -- 51
2019-03-20 14:00:00 17.2 16 Sur 28 Sur 0 -- -- 51
2019-03-20 13:00:00 19.7 9 Este 25 Sudeste 0 -- -- 37
2019-03-20 12:00:00 18.9 9 Este 25 Este 0 -- -- 37
2019-03-20 11:00:00 17.4 10 Este 26 Este 0 -- -- 41
2019-03-20 10:00:00 15.2 14 Nordeste 28 Este 0 -- -- 43
2019-03-20 09:00:00 12.9 13 Nordeste 27 Nordeste 0 -- -- 46
2019-03-20 08:00:00 9.1 11 Nordeste 17 Nordeste 0 -- -- 53
2019-03-20 07:00:00 8.8 11 Nordeste 17 Nordeste 0 -- -- 53
2019-03-20 06:00:00 9.4 11 Nordeste 20 Nordeste 0 -- -- 53
2019-03-20 05:00:00 8.8 8 Nordeste 15 Nordeste 0 -- -- 53
2019-03-20 04:00:00 10.5 9 Nordeste 17 Este 0 -- -- 48
2019-03-20 03:00:00 11.2 8 Nordeste 17 Nordeste 0 -- -- 47
2019-03-20 02:00:00 11.3 10 Nordeste 15 Nordeste 0 -- -- 47
2019-03-20 01:00:00 12 10 Nordeste 17 Nordeste 0 -- -- 46
2019-03-20 00:00:00 12.8 8 Nordeste 13 Nordeste 0 -- -- 46
2019-03-19 23:00:00 13.8 9 Nordeste 15 Nordeste 0 -- -- 46
2019-03-19 22:00:00 14 9 Nordeste 13 Nordeste 0 -- -- 51
2019-03-19 21:00:00 14.4 6 Norte 12 Norte 0 -- -- 71
2019-03-19 20:00:00 15.6 6 Noroeste 15 Noroeste 0 -- -- 68
2019-03-19 19:00:00 17.5 8 Noroeste 18 Oeste 0 -- -- 70
2019-03-19 18:00:00 18.4 6 Sudoeste 17 Oeste 0 -- -- 65
2019-03-19 17:00:00 18.2 9 Oeste 18 Oeste 0 -- -- 66
2019-03-19 16:00:00 18.3 10 Sudoeste 20 Oeste 0 -- -- 63
2019-03-19 15:00:00 18.9 10 Sudoeste 22 Sudoeste 0 -- -- 61
2019-03-19 14:00:00 18.8 10 Sudoeste 26 Este 0 -- -- 51
2019-03-19 13:00:00 20.9 4 Nordeste 23 Este 0 -- -- 41
2019-03-19 12:00:00 19.2 8 Nordeste 22 Nordeste 0 -- -- 44
2019-03-19 11:00:00 17.4 8 Norte 16 Norte 0 -- -- 48
2019-03-19 10:00:00 14.8 10 Nordeste 16 Nordeste 0 -- -- 56
2019-03-19 09:00:00 10.8 7 Nordeste 12 Este 0 -- -- 92
2019-03-19 08:00:00 8.3 5 Nordeste 7 Nordeste 0 -- -- 94
2019-03-19 07:00:00 7.5 3 Nordeste 5 Norte 0 -- -- 92
2019-03-19 06:00:00 8.1 2 Norte 5 Sudeste 0 -- -- 91
2019-03-19 05:00:00 10.3 0 Calma 14 Sur 0 -- -- 87
2019-03-19 04:00:00 13.5 9 Sur 16 Sur 0 -- -- 91
2019-03-19 03:00:00 8.2 3 Sudeste 4 Sudeste 0 -- -- 94
2019-03-19 02:00:00 8.2 2 Este 6 Norte 0 -- -- 93
2019-03-19 01:00:00 8.8 3 Sur 7 Este 0 -- -- 92
2019-03-19 00:00:00 9.6 3 Noroeste 4 Noroeste 0 -- -- 91